Terminal Aerodrome Forecast
Issued by NWS

Home | Current Version | Previous Version | Text Only | Print | Product List | Glossary On
Versions: 1 2 3 4 5 6 7 8 9 10 11 12 13
000
FTUS45 KTFX 221700
TAFLWT
TAF
KLWT 221730Z 2218/2318 VRB05KT P6SM SCT080
      TEMPO 2218/2220 -SHRA BKN060
     FM222100 VRB05KT P6SM VCTS SCT080CB SCT120 BKN250
      TEMPO 2221/2301 VRB25G35KT 5SM TSRA OVC025CB
     FM230300 11006KT P6SM SCT120 BKN250
     FM231600 09009KT P6SM SCT120=

USA.gov is the U.S. government's official web portal to all federal, state and local government web resources and services.